Time;durP1;ratioP1;P1;durP2;ratioP2;P2;SDS_P1;SDS_P2;PMS_P1;PMS_P2;Temp;Humidity;BMP_temperature;BMP_pressure;BME280_temperature;BME280_humidity;BME280_pressure;Samples;Min_cycle;Max_cycle;Signal;HPM_P1;HPM_P2
2023/10/19 00:00:44;;;;;;;;;;;;;;;10.61;53.63;100005.41;5448596;32;34218;-77
2023/10/19 00:03:46;;;;;;;;;;;;;;;10.90;52.39;99997.06;5448315;32;34038;-77
2023/10/19 00:06:52;;;;;;;;;;;;;;;11.49;51.12;99989.84;5450633;32;35082;-77
2023/10/19 00:09:55;;;;;;;;;;;;;;;11.26;51.25;99986.56;5448846;32;34231;-77
2023/10/19 00:13:00;;;;;;;;;;;;;;;10.93;52.28;99998.69;5449719;32;35322;-78
2023/10/19 00:16:11;;;;;;;;;;;;;;;11.13;52.61;99990.69;5447764;32;34236;-77
2023/10/19 00:19:19;;;;;;;;;;;;;;;10.90;52.72;99983.06;5448387;32;34214;-78
2023/10/19 00:22:21;;;;;;;;;;;;;;;10.90;53.32;99975.16;5450644;32;33592;-78
2023/10/19 00:25:24;;;;;;;;;;;;;;;11.41;52.58;99960.44;5448724;32;34228;-77
2023/10/19 00:28:29;;;;;;;;;;;;;;;11.55;52.27;99957.97;5450733;32;34207;-77
2023/10/19 00:31:36;;;;;;;;;;;;;;;11.21;52.67;99966.69;5448301;32;34397;-77
2023/10/19 00:34:38;;;;;;;;;;;;;;;12.20;50.36;99954.63;5448196;32;34218;-78
2023/10/19 00:37:42;;;;;;;;;;;;;;;12.54;49.70;99946.69;5447792;32;34245;-78
2023/10/19 00:40:50;;;;;;;;;;;;;;;11.20;52.91;99952.66;5446524;32;34314;-78
2023/10/19 00:43:58;;;;;;;;;;;;;;;10.87;53.59;99951.62;5447630;32;34223;-78
2023/10/19 00:47:23;;;;;;;;;;;;;;;11.28;52.26;99947.03;5445103;32;34656;-78
2023/10/19 00:50:30;;;;;;;;;;;;;;;11.46;52.04;99946.09;5449740;32;34244;-77
2023/10/19 00:53:41;;;;;;;;;;;;;;;11.63;51.77;99942.66;5448905;32;34155;-77
2023/10/19 00:56:48;;;;;;;;;;;;;;;11.21;52.77;99937.75;5445213;32;34222;-78
2023/10/19 00:59:54;;;;;;;;;;;;;;;10.83;53.48;99935.16;5446642;32;35732;-78
2023/10/19 01:03:04;;;;;;;;;;;;;;;10.94;53.69;99932.87;5442681;32;34278;-78
2023/10/19 01:06:12;;;;;;;;;;;;;;;11.43;52.82;99913.84;5446772;32;34111;-77
2023/10/19 01:09:14;;;;;;;;;;;;;;;11.05;54.31;99914.81;5446173;32;35345;-77
2023/10/19 01:12:25;;;;;;;;;;;;;;;10.98;54.76;99918.66;5447734;32;34634;-77
2023/10/19 01:18:33;;;;;;;;;;;;;;;11.29;53.56;99899.59;5447805;32;34399;-77
2023/10/19 01:21:44;;;;;;;;;;;;;;;11.64;52.00;99899.59;5435631;32;34235;-78
2023/10/19 01:24:47;;;;;;;;;;;;;;;12.04;51.15;99900.19;5450307;32;34218;-78
2023/10/19 01:27:54;;;;;;;;;;;;;;;11.70;52.11;99901.06;5449194;32;34425;-77
2023/10/19 01:30:57;;;;;;;;;;;;;;;11.05;54.52;99904.28;5452456;32;35631;-78
2023/10/19 01:34:04;;;;;;;;;;;;;;;10.98;54.76;99895.00;5448160;32;34277;-78
2023/10/19 01:37:06;;;;;;;;;;;;;;;10.91;55.23;99890.97;5452024;32;34278;-78
2023/10/19 01:40:09;;;;;;;;;;;;;;;11.21;53.75;99891.25;5450218;32;34109;-78
2023/10/19 01:43:25;;;;;;;;;;;;;;;11.29;54.32;99875.94;5452291;32;35897;-78
2023/10/19 01:46:31;;;;;;;;;;;;;;;11.22;55.62;99871.91;5448554;32;35361;-78
2023/10/19 01:49:33;;;;;;;;;;;;;;;10.77;58.50;99875.00;5449687;32;35879;-78
2023/10/19 01:52:35;;;;;;;;;;;;;;;11.87;54.47;99858.97;5450282;32;35568;-76
2023/10/19 01:55:38;;;;;;;;;;;;;;;11.23;57.59;99865.72;5448150;32;34118;-76
2023/10/19 01:58:41;;;;;;;;;;;;;;;10.48;61.85;99857.97;5451757;32;34453;-76
2023/10/19 02:01:45;;;;;;;;;;;;;;;10.81;61.82;99839.75;5446501;32;34083;-76
2023/10/19 02:04:50;;;;;;;;;;;;;;;11.45;59.71;99843.56;5443821;32;34314;-76
2023/10/19 02:07:54;;;;;;;;;;;;;;;11.20;60.70;99849.22;5451371;32;35113;-76
2023/10/19 02:10:57;;;;;;;;;;;;;;;10.99;62.48;99848.50;5449547;32;34197;-76
2023/10/19 02:14:00;;;;;;;;;;;;;;;10.93;62.56;99856.69;5451272;32;33217;-76
2023/10/19 02:17:03;;;;;;;;;;;;;;;10.06;66.30;99852.91;5447592;32;36019;-76
2023/10/19 02:20:12;;;;;;;;;;;;;;;10.88;64.91;99846.41;5451166;32;34518;-76
2023/10/19 02:23:19;;;;;;;;;;;;;;;10.69;65.43;99838.56;5445294;32;34830;-75
2023/10/19 02:26:22;;;;;;;;;;;;;;;10.22;67.23;99836.38;5460926;32;35632;-76
2023/10/19 02:29:26;;;;;;;;;;;;;;;9.39;71.11;99833.97;5451432;32;35334;-76
2023/10/19 02:32:28;;;;;;;;;;;;;;;9.82;69.58;99833.84;5449227;32;34155;-77
2023/10/19 02:35:30;;;;;;;;;;;;;;;9.80;71.86;99825.22;5450256;32;35502;-75
2023/10/19 02:38:33;;;;;;;;;;;;;;;9.91;70.42;99828.19;5449380;32;35233;-75
2023/10/19 02:41:36;;;;;;;;;;;;;;;10.45;68.46;99829.22;5436131;32;34048;-75
2023/10/19 02:44:38;;;;;;;;;;;;;;;10.27;71.05;99823.06;5448274;32;34691;-76
2023/10/19 02:47:44;;;;;;;;;;;;;;;9.73;74.38;99820.25;5447538;32;33963;-76
2023/10/19 02:50:47;;;;;;;;;;;;;;;9.49;74.95;99816.06;5449676;32;35465;-76
2023/10/19 02:53:51;;;;;;;;;;;;;;;9.45;76.00;99809.22;5435001;32;34126;-76
2023/10/19 02:56:54;;;;;;;;;;;;;;;9.52;76.18;99810.66;5449113;32;35608;-78
2023/10/19 02:59:56;;;;;;;;;;;;;;;9.26;76.95;99801.31;5447807;32;34240;-76
2023/10/19 03:02:59;;;;;;;;;;;;;;;9.25;79.14;99799.59;5449373;32;34195;-79
2023/10/19 03:06:03;;;;;;;;;;;;;;;9.09;80.76;99782.84;5450162;32;34258;-77
2023/10/19 03:12:27;;;;;;;;;;;;;;;9.20;79.68;99784.06;5450872;32;35274;-82
2023/10/19 03:15:33;;;;;;;;;;;;;;;10.06;75.65;99782.88;5444760;32;33912;-77
2023/10/19 03:18:35;;;;;;;;;;;;;;;9.45;76.57;99770.75;5450404;32;35794;-77
2023/10/19 03:21:43;;;;;;;;;;;;;;;8.63;81.40;99767.28;5445797;32;34220;-77
2023/10/19 03:24:46;;;;;;;;;;;;;;;9.12;80.72;99759.09;5448828;32;34169;-77
2023/10/19 03:27:48;;;;;;;;;;;;;;;8.94;80.90;99761.59;5448620;32;34217;-77
2023/10/19 03:30:51;;;;;;;;;;;;;;;9.45;80.59;99752.38;5449155;32;34128;-78
2023/10/19 03:33:59;;;;;;;;;;;;;;;10.08;76.92;99751.28;5450787;32;35616;-78
2023/10/19 03:37:12;;;;;;;;;;;;;;;9.81;78.35;99748.19;5445919;32;34752;-78
2023/10/19 03:40:20;;;;;;;;;;;;;;;8.98;79.32;99741.34;5449324;32;34306;-77
2023/10/19 03:43:22;;;;;;;;;;;;;;;8.77;82.66;99737.03;5448186;32;35269;-78
2023/10/19 03:46:31;;;;;;;;;;;;;;;9.10;81.56;99743.44;5446753;32;34349;-78
2023/10/19 03:49:36;;;;;;;;;;;;;;;8.92;83.61;99736.38;5451134;32;34243;-77
2023/10/19 03:52:39;;;;;;;;;;;;;;;9.74;79.36;99732.72;5448632;32;35786;-78
2023/10/19 03:55:43;;;;;;;;;;;;;;;10.23;77.13;99721.69;5450469;32;35256;-78
2023/10/19 03:58:50;;;;;;;;;;;;;;;9.21;82.49;99722.88;5446827;32;35730;-79
2023/10/19 04:01:52;;;;;;;;;;;;;;;9.37;81.67;99716.94;5447256;32;34174;-78
2023/10/19 04:04:55;;;;;;;;;;;;;;;9.14;81.69;99726.66;5449899;32;34422;-79
2023/10/19 04:07:58;;;;;;;;;;;;;;;10.46;75.54;99723.22;5449040;32;35262;-78
2023/10/19 04:14:35;;;;;;;;;;;;;;;9.40;80.56;99701.03;5444967;32;35650;-77
2023/10/19 04:17:42;;;;;;;;;;;;;;;10.14;76.20;99706.34;5447748;32;33827;-78
2023/10/19 04:23:52;;;;;;;;;;;;;;;8.94;83.83;99700.44;5448185;32;34180;-79
2023/10/19 04:26:59;;;;;;;;;;;;;;;9.68;80.27;99691.00;5448829;32;34153;-79
2023/10/19 04:30:02;;;;;;;;;;;;;;;9.09;80.84;99686.69;5447843;32;33390;-79
2023/10/19 04:33:08;;;;;;;;;;;;;;;8.94;84.03;99676.88;5447563;32;34244;-80
2023/10/19 04:36:11;;;;;;;;;;;;;;;8.74;84.74;99675.09;5449494;32;34145;-79
2023/10/19 04:39:14;;;;;;;;;;;;;;;9.49;82.81;99674.41;5447814;32;33835;-79
2023/10/19 04:42:16;;;;;;;;;;;;;;;9.72;81.31;99660.22;5448761;32;34751;-80
2023/10/19 04:45:18;;;;;;;;;;;;;;;9.22;83.57;99652.91;5447344;32;34789;-78
2023/10/19 04:48:20;;;;;;;;;;;;;;;10.11;80.55;99649.59;5447447;32;34228;-80
2023/10/19 04:51:24;;;;;;;;;;;;;;;10.16;78.03;99650.19;5448223;32;35516;-80
2023/10/19 04:54:27;;;;;;;;;;;;;;;10.37;76.96;99652.72;5446423;32;34210;-81
2023/10/19 04:57:30;;;;;;;;;;;;;;;10.19;77.89;99649.22;5449426;32;35252;-79
2023/10/19 05:00:33;;;;;;;;;;;;;;;9.52;80.20;99653.28;5448478;32;34032;-80
2023/10/19 05:03:35;;;;;;;;;;;;;;;9.69;80.97;99647.25;5451471;32;34241;-79
2023/10/19 05:06:38;;;;;;;;;;;;;;;10.54;78.09;99650.97;5448165;32;37059;-79
2023/10/19 05:09:40;;;;;;;;;;;;;;;10.73;74.53;99645.63;5451307;32;34612;-79
2023/10/19 05:12:42;;;;;;;;;;;;;;;10.55;76.54;99644.78;5450049;32;34295;-78
2023/10/19 05:15:44;;;;;;;;;;;;;;;9.69;81.88;99653.34;5444019;32;34146;-79
2023/10/19 05:18:46;;;;;;;;;;;;;;;9.36;80.96;99660.16;5462993;32;34226;-77
2023/10/19 05:21:48;;;;;;;;;;;;;;;9.87;79.22;99651.63;5449999;32;34158;-79
2023/10/19 05:24:51;;;;;;;;;;;;;;;9.58;82.24;99658.22;5451644;32;34277;-78
2023/10/19 05:27:53;;;;;;;;;;;;;;;9.61;82.47;99658.09;5450286;32;34990;-78
2023/10/19 05:30:55;;;;;;;;;;;;;;;9.25;83.93;99654.53;5451031;32;33468;-78
2023/10/19 05:33:57;;;;;;;;;;;;;;;9.35;82.55;99655.84;5449789;32;35476;-78
2023/10/19 05:37:01;;;;;;;;;;;;;;;9.73;83.17;99656.69;5447088;32;34098;-79
2023/10/19 05:40:04;;;;;;;;;;;;;;;9.42;82.24;99650.25;5442908;32;34142;-78
2023/10/19 05:43:07;;;;;;;;;;;;;;;9.99;81.67;99656.28;5442240;32;34000;-78
2023/10/19 05:46:10;;;;;;;;;;;;;;;9.60;80.03;99655.56;5448432;32;35004;-79
2023/10/19 05:49:12;;;;;;;;;;;;;;;10.53;77.46;99646.62;5448320;32;34253;-79
2023/10/19 05:52:14;;;;;;;;;;;;;;;10.13;76.10;99652.16;5449131;32;35181;-82
2023/10/19 05:55:17;;;;;;;;;;;;;;;9.71;82.62;99648.00;5443018;32;33878;-81
2023/10/19 05:58:20;;;;;;;;;;;;;;;9.71;79.74;99651.50;5448095;32;34259;-82
2023/10/19 06:01:24;;;;;;;;;;;;;;;9.74;80.54;99651.37;5444431;32;35731;-82
2023/10/19 06:04:27;;;;;;;;;;;;;;;9.59;78.45;99643.34;5446393;32;35467;-82
2023/10/19 06:07:30;;;;;;;;;;;;;;;10.32;77.25;99644.25;5447375;32;34215;-79
2023/10/19 06:10:33;;;;;;;;;;;;;;;10.12;77.82;99640.78;5444866;32;34407;-80
2023/10/19 06:13:35;;;;;;;;;;;;;;;10.57;75.95;99640.31;5432747;32;34627;-77
2023/10/19 06:16:37;;;;;;;;;;;;;;;10.72;75.09;99643.91;5442989;32;35818;-80
2023/10/19 06:19:42;;;;;;;;;;;;;;;10.23;76.10;99640.28;5446602;32;36548;-81
2023/10/19 06:22:50;;;;;;;;;;;;;;;10.40;75.32;99634.19;5445115;32;34711;-78
2023/10/19 06:25:52;;;;;;;;;;;;;;;10.58;76.93;99635.91;5444083;32;34733;-78
2023/10/19 06:28:59;;;;;;;;;;;;;;;11.27;72.73;99630.50;5442384;32;34014;-79
2023/10/19 06:32:02;;;;;;;;;;;;;;;11.21;73.24;99628.22;5442850;32;34274;-76
2023/10/19 06:35:08;;;;;;;;;;;;;;;10.48;75.66;99621.50;5445648;32;34229;-78
2023/10/19 06:38:12;;;;;;;;;;;;;;;10.84;74.33;99618.78;5448212;32;35502;-79
2023/10/19 06:41:16;;;;;;;;;;;;;;;9.88;77.69;99619.19;5442438;32;35007;-80
2023/10/19 06:44:18;;;;;;;;;;;;;;;10.28;77.09;99599.72;5429802;32;34289;-78
2023/10/19 06:47:20;;;;;;;;;;;;;;;10.65;76.64;99604.91;5447078;32;36229;-81
2023/10/19 06:50:23;;;;;;;;;;;;;;;10.81;75.12;99611.87;5448027;32;33624;-78
2023/10/19 06:53:25;;;;;;;;;;;;;;;11.70;70.74;99620.25;5429880;32;35191;-79
2023/10/19 06:56:27;;;;;;;;;;;;;;;10.21;75.83;99634.22;5442519;32;32792;-78
2023/10/19 06:59:33;;;;;;;;;;;;;;;10.39;77.85;99614.97;5433299;32;34439;-79
2023/10/19 07:02:35;;;;;;;;;;;;;;;10.37;75.85;99616.81;5428300;32;37082;-77
2023/10/19 07:05:37;;;;;;;;;;;;;;;10.81;75.35;99611.87;5445766;32;35091;-77
2023/10/19 07:08:42;;;;;;;;;;;;;;;9.98;79.98;99609.97;5426858;32;34238;-78
2023/10/19 07:11:44;;;;;;;;;;;;;;;11.10;75.33;99602.47;5444215;32;34259;-77
2023/10/19 07:14:47;;;;;;;;;;;;;;;11.49;71.53;99605.66;5441244;32;35303;-77
2023/10/19 07:17:50;;;;;;;;;;;;;;;11.20;71.88;99597.56;5444901;32;33724;-78
2023/10/19 07:21:00;;;;;;;;;;;;;;;10.86;73.47;99593.25;5446084;32;34284;-78
2023/10/19 07:24:05;;;;;;;;;;;;;;;10.47;77.49;99593.56;5445513;32;33729;-81
2023/10/19 07:27:17;;;;;;;;;;;;;;;10.27;77.25;99579.66;5443816;32;34527;-79
2023/10/19 07:30:26;;;;;;;;;;;;;;;10.88;73.69;99583.50;5446457;32;33962;-77
2023/10/19 07:33:31;;;;;;;;;;;;;;;11.16;74.86;99585.53;5443969;32;34601;-75
2023/10/19 07:36:36;;;;;;;;;;;;;;;11.10;74.66;99577.97;5442646;32;35585;-75
2023/10/19 07:39:42;;;;;;;;;;;;;;;10.85;76.61;99587.16;5446428;32;34251;-77
2023/10/19 07:42:44;;;;;;;;;;;;;;;11.43;72.69;99574.41;5447582;32;34207;-78
2023/10/19 07:45:47;;;;;;;;;;;;;;;11.62;72.00;99569.81;5443226;32;33364;-86
2023/10/19 07:48:52;;;;;;;;;;;;;;;11.31;72.65;99562.78;5446983;32;34210;-80
2023/10/19 07:51:55;;;;;;;;;;;;;;;10.94;74.79;99561.28;5438473;32;34888;-79
2023/10/19 07:54:59;;;;;;;;;;;;;;;11.06;76.29;99545.72;5443177;32;35378;-79
2023/10/19 07:58:06;;;;;;;;;;;;;;;11.79;71.00;99560.97;5446915;32;34339;-77
2023/10/19 08:01:08;;;;;;;;;;;;;;;11.21;73.05;99548.47;5444435;32;34927;-78
2023/10/19 08:04:11;;;;;;;;;;;;;;;10.70;75.09;99548.53;5442069;32;34254;-81
2023/10/19 08:07:14;;;;;;;;;;;;;;;11.97;70.01;99538.03;5436607;32;34212;-79
2023/10/19 08:10:16;;;;;;;;;;;;;;;10.89;74.22;99543.16;5442426;32;34122;-79
2023/10/19 08:13:21;;;;;;;;;;;;;;;11.02;73.61;99536.31;5443219;32;35398;-76
2023/10/19 08:16:27;;;;;;;;;;;;;;;10.75;75.77;99533.34;5443765;32;34441;-77
2023/10/19 08:19:32;;;;;;;;;;;;;;;11.32;72.65;99528.50;5446975;32;35414;-79
2023/10/19 08:22:36;;;;;;;;;;;;;;;10.55;74.83;99530.94;5445678;32;35966;-80
2023/10/19 08:25:39;;;;;;;;;;;;;;;11.22;73.13;99527.31;5446640;32;34766;-78
2023/10/19 08:29:00;;;;;;;;;;;;;;;11.25;73.73;99521.87;5445365;32;34005;-82
2023/10/19 08:32:06;;;;;;;;;;;;;;;11.42;73.66;99522.72;5443347;32;33837;-83
2023/10/19 08:35:11;;;;;;;;;;;;;;;10.88;74.60;99519.56;5446117;32;34452;-82
2023/10/19 08:38:13;;;;;;;;;;;;;;;11.58;72.33;99498.06;5435918;32;36666;-80
2023/10/19 08:41:15;;;;;;;;;;;;;;;11.46;72.08;99508.44;5445255;32;32710;-84
2023/10/19 08:44:17;;;;;;;;;;;;;;;12.06;70.07;99505.91;5442867;32;35466;-82
2023/10/19 08:47:19;;;;;;;;;;;;;;;11.98;70.33;99508.09;5442185;32;34397;-79
2023/10/19 08:50:24;;;;;;;;;;;;;;;11.75;71.00;99502.38;5441388;32;33309;-78
2023/10/19 08:53:26;;;;;;;;;;;;;;;11.72;71.67;99501.69;5429398;32;34322;-78
2023/10/19 08:56:28;;;;;;;;;;;;;;;11.50;72.78;99488.94;5440608;32;34247;-82
2023/10/19 08:59:31;;;;;;;;;;;;;;;12.09;71.58;99490.75;5443350;32;33888;-81
2023/10/19 09:02:33;;;;;;;;;;;;;;;11.96;71.24;99488.94;5442534;32;35292;-80
2023/10/19 09:05:37;;;;;;;;;;;;;;;11.59;71.85;99480.50;5443171;32;35181;-82
2023/10/19 09:08:40;;;;;;;;;;;;;;;11.70;72.42;99478.09;5442525;32;34313;-77
2023/10/19 09:11:43;;;;;;;;;;;;;;;11.08;74.26;99485.16;5442038;32;35524;-82
2023/10/19 09:14:45;;;;;;;;;;;;;;;12.35;70.06;99476.00;5445613;32;35403;-80
2023/10/19 09:17:49;;;;;;;;;;;;;;;12.48;69.51;99473.47;5441220;32;33765;-80
2023/10/19 09:21:07;;;;;;;;;;;;;;;13.18;67.35;99465.56;5426604;32;35386;-80
2023/10/19 09:24:11;;;;;;;;;;;;;;;12.07;70.22;99478.62;5448081;32;34412;-83
2023/10/19 09:27:13;;;;;;;;;;;;;;;12.03;71.48;99466.56;5442930;32;33115;-80
2023/10/19 09:30:19;;;;;;;;;;;;;;;12.03;71.60;99475.31;5440854;32;34167;-81
2023/10/19 09:33:21;;;;;;;;;;;;;;;12.22;71.23;99464.50;5445478;32;35589;-82
2023/10/19 09:36:26;;;;;;;;;;;;;;;12.72;67.54;99463.19;5443120;32;35323;-81
2023/10/19 09:39:35;;;;;;;;;;;;;;;13.32;67.03;99448.84;5445747;32;34631;-80
2023/10/19 09:42:38;;;;;;;;;;;;;;;13.47;65.23;99454.00;5443732;32;34397;-81
2023/10/19 09:45:42;;;;;;;;;;;;;;;12.70;68.72;99459.81;5449830;32;35582;-83
2023/10/19 09:48:45;;;;;;;;;;;;;;;12.68;68.87;99453.78;5447769;32;32409;-83
2023/10/19 09:51:49;;;;;;;;;;;;;;;13.26;65.80;99447.47;5447828;32;35171;-83
2023/10/19 09:55:15;;;;;;;;;;;;;;;13.89;64.95;99440.66;5447183;32;33488;-83
2023/10/19 09:58:17;;;;;;;;;;;;;;;12.43;71.62;99439.50;5446021;32;35035;-79
2023/10/19 10:01:21;;;;;;;;;;;;;;;14.24;64.23;99428.53;5446483;32;33801;-81
2023/10/19 10:04:33;;;;;;;;;;;;;;;12.89;68.04;99422.59;5446237;32;34648;-83
2023/10/19 10:07:36;;;;;;;;;;;;;;;13.26;67.87;99413.16;5445420;32;34226;-80
2023/10/19 10:10:46;;;;;;;;;;;;;;;14.39;64.86;99405.47;5446782;32;32322;-78
2023/10/19 10:13:51;;;;;;;;;;;;;;;13.95;64.90;99408.56;5445706;32;36187;-82
2023/10/19 10:17:04;;;;;;;;;;;;;;;13.79;66.84;99404.31;5446771;32;35034;-81
2023/10/19 10:20:10;;;;;;;;;;;;;;;14.20;64.96;99389.22;5447220;32;35833;-80
2023/10/19 10:23:24;;;;;;;;;;;;;;;14.11;64.40;99382.78;5447526;32;36110;-78
2023/10/19 10:26:29;;;;;;;;;;;;;;;14.14;64.42;99382.56;5447629;32;34302;-82
2023/10/19 10:29:31;;;;;;;;;;;;;;;14.16;64.92;99362.13;5444774;32;35369;-80
2023/10/19 10:32:54;;;;;;;;;;;;;;;14.08;63.60;99367.97;5447354;32;34439;-79
2023/10/19 10:35:56;;;;;;;;;;;;;;;14.23;63.84;99355.50;5445023;32;35366;-76
2023/10/19 10:39:04;;;;;;;;;;;;;;;14.35;63.81;99351.13;5458475;32;35435;-80
2023/10/19 10:42:09;;;;;;;;;;;;;;;14.26;63.31;99346.50;5448951;32;35250;-80
2023/10/19 10:45:21;;;;;;;;;;;;;;;14.60;63.14;99340.50;5438427;32;34357;-81
2023/10/19 10:48:23;;;;;;;;;;;;;;;12.59;69.41;99344.50;5446801;32;34901;-80
2023/10/19 10:51:28;;;;;;;;;;;;;;;13.06;69.51;99335.28;5443552;32;34370;-79
2023/10/19 10:54:31;;;;;;;;;;;;;;;13.83;66.91;99333.62;5447657;32;34141;-80
2023/10/19 10:57:33;;;;;;;;;;;;;;;13.19;69.09;99344.09;5442887;32;34215;-80
2023/10/19 11:00:42;;;;;;;;;;;;;;;12.79;70.71;99322.13;5430340;32;34312;-78
2023/10/19 11:03:44;;;;;;;;;;;;;;;13.97;67.01;99314.19;5446768;32;34269;-75
2023/10/19 11:06:49;;;;;;;;;;;;;;;12.56;71.35;99310.44;5447025;32;33669;-80
2023/10/19 11:09:51;;;;;;;;;;;;;;;13.17;69.40;99303.78;5448924;32;34788;-81
2023/10/19 11:13:06;;;;;;;;;;;;;;;12.70;71.54;99314.81;5446048;32;33967;-81
2023/10/19 11:16:09;;;;;;;;;;;;;;;13.32;69.71;99301.91;5433159;32;33410;-75
2023/10/19 11:19:13;;;;;;;;;;;;;;;14.18;67.10;99285.44;5443175;32;34081;-76
2023/10/19 11:22:15;;;;;;;;;;;;;;;14.05;66.48;99291.56;5440615;32;34248;-77
2023/10/19 11:25:18;;;;;;;;;;;;;;;14.45;64.21;99283.44;5444104;32;33953;-78
2023/10/19 11:28:20;;;;;;;;;;;;;;;14.57;63.99;99281.72;5445282;32;34111;-79
2023/10/19 11:31:23;;;;;;;;;;;;;;;15.34;62.26;99282.16;5441868;32;32911;-78
2023/10/19 11:34:25;;;;;;;;;;;;;;;14.70;62.97;99276.37;5447067;32;34639;-76
2023/10/19 11:37:27;;;;;;;;;;;;;;;14.88;63.23;99275.03;5443889;32;34137;-76
2023/10/19 11:40:33;;;;;;;;;;;;;;;14.66;63.31;99275.75;5443813;32;34440;-80
2023/10/19 11:43:36;;;;;;;;;;;;;;;14.04;65.48;99274.03;5440458;32;34033;-78
2023/10/19 11:46:38;;;;;;;;;;;;;;;14.68;63.43;99257.13;5446059;32;34445;-81
2023/10/19 11:49:40;;;;;;;;;;;;;;;14.35;65.46;99258.59;5442620;32;35324;-82
2023/10/19 11:52:42;;;;;;;;;;;;;;;14.77;63.93;99256.47;5445115;32;34262;-79
2023/10/19 11:55:44;;;;;;;;;;;;;;;14.92;63.58;99251.81;5447196;32;34212;-77
2023/10/19 11:58:46;;;;;;;;;;;;;;;14.40;65.32;99255.63;5442158;32;35227;-80
2023/10/19 12:01:49;;;;;;;;;;;;;;;13.69;67.83;99238.69;5442795;32;35699;-81
2023/10/19 12:04:52;;;;;;;;;;;;;;;13.62;66.53;99253.28;5446570;32;34318;-76
2023/10/19 12:07:56;;;;;;;;;;;;;;;13.49;68.96;99250.62;5461000;32;35337;-83
2023/10/19 12:10:58;;;;;;;;;;;;;;;14.35;65.71;99240.94;5442779;32;34150;-80
2023/10/19 12:14:03;;;;;;;;;;;;;;;14.96;63.28;99237.41;5446862;32;35212;-79
2023/10/19 12:17:07;;;;;;;;;;;;;;;15.47;62.57;99214.06;5446392;32;35261;-77
2023/10/19 12:20:14;;;;;;;;;;;;;;;16.55;59.25;99215.16;5443982;32;34075;-79
2023/10/19 12:23:16;;;;;;;;;;;;;;;14.45;65.73;99214.69;5446484;32;35566;-79
2023/10/19 12:26:19;;;;;;;;;;;;;;;15.51;62.26;99207.53;5443841;32;34598;-79
2023/10/19 12:29:22;;;;;;;;;;;;;;;14.96;63.85;99195.09;5444198;32;34315;-79
2023/10/19 12:32:27;;;;;;;;;;;;;;;15.52;61.07;99190.72;5444206;32;35279;-78
2023/10/19 12:36:24;;;;;;;;;;;;;;;15.00;62.57;99189.41;5442430;32;34571;-80
2023/10/19 12:38:55;;;;;;;;;;;;;;;14.96;64.01;99198.56;5438342;32;33270;-78
2023/10/19 12:41:57;;;;;;;;;;;;;;;15.22;63.07;99187.78;5445987;32;34293;-80
2023/10/19 12:44:59;;;;;;;;;;;;;;;14.23;65.98;99188.13;5445202;32;34275;-74
2023/10/19 12:48:01;;;;;;;;;;;;;;;14.86;64.10;99184.34;5443877;32;34356;-79
2023/10/19 12:51:06;;;;;;;;;;;;;;;14.02;67.29;99180.81;5446511;32;34219;-79
2023/10/19 12:54:13;;;;;;;;;;;;;;;13.63;69.46;99165.19;5440731;32;34245;-78
2023/10/19 12:57:16;;;;;;;;;;;;;;;15.09;64.62;99161.44;5446665;32;34978;-78
2023/10/19 13:00:29;;;;;;;;;;;;;;;14.37;67.01;99174.78;5443136;32;34304;-80
2023/10/19 13:03:36;;;;;;;;;;;;;;;14.03;68.49;99163.16;5445297;32;34167;-78
2023/10/19 13:06:39;;;;;;;;;;;;;;;14.86;65.39;99163.19;5446672;32;34087;-80
2023/10/19 13:09:44;;;;;;;;;;;;;;;14.41;65.94;99160.34;5441278;32;35440;-80
2023/10/19 13:12:47;;;;;;;;;;;;;;;13.55;70.68;99150.75;5440928;32;34860;-79
2023/10/19 13:15:50;;;;;;;;;;;;;;;14.61;68.06;99157.09;5445817;32;34217;-80
2023/10/19 13:18:52;;;;;;;;;;;;;;;15.09;64.80;99135.81;5440002;32;35221;-81
2023/10/19 13:21:58;;;;;;;;;;;;;;;15.67;62.79;99128.62;5450692;32;34191;-81
2023/10/19 13:25:02;;;;;;;;;;;;;;;15.72;61.60;99130.91;5442270;32;32721;-80
2023/10/19 13:28:08;;;;;;;;;;;;;;;15.55;62.67;99126.06;5447300;32;34113;-77
2023/10/19 13:31:13;;;;;;;;;;;;;;;14.72;64.53;99135.13;5442985;32;35576;-77
2023/10/19 13:34:15;;;;;;;;;;;;;;;15.24;64.28;99127.62;5443811;32;36143;-77
2023/10/19 13:37:18;;;;;;;;;;;;;;;15.03;65.11;99115.13;5445347;32;35781;-78
2023/10/19 13:40:20;;;;;;;;;;;;;;;14.62;65.71;99128.88;5440544;32;34165;-76
2023/10/19 13:43:22;;;;;;;;;;;;;;;14.85;65.11;99116.53;5442333;32;34103;-80
2023/10/19 13:46:24;;;;;;;;;;;;;;;13.83;69.37;99128.47;5444897;32;34420;-80
2023/10/19 13:49:27;;;;;;;;;;;;;;;14.28;68.53;99119.94;5444100;32;32334;-80
2023/10/19 13:52:31;;;;;;;;;;;;;;;14.24;69.15;99119.34;5448916;32;33943;-80
2023/10/19 13:55:34;;;;;;;;;;;;;;;13.78;71.08;99116.56;5443920;32;34009;-81
2023/10/19 13:58:36;;;;;;;;;;;;;;;13.24;72.70;99109.84;5443225;32;34418;-77
2023/10/19 14:01:39;;;;;;;;;;;;;;;13.28;73.00;99115.75;5444832;32;34082;-79
2023/10/19 14:04:41;;;;;;;;;;;;;;;13.86;70.54;99116.03;5446042;32;34179;-80
2023/10/19 14:07:44;;;;;;;;;;;;;;;12.93;74.43;99113.72;5446722;32;34251;-79
2023/10/19 14:10:46;;;;;;;;;;;;;;;14.12;70.40;99114.97;5445574;32;35200;-80
2023/10/19 14:13:51;;;;;;;;;;;;;;;14.03;70.67;99111.19;5432129;32;35378;-79
2023/10/19 14:16:54;;;;;;;;;;;;;;;14.20;68.96;99099.38;5447660;32;34317;-80
2023/10/19 14:19:56;;;;;;;;;;;;;;;13.86;70.44;99098.38;5447357;32;33978;-76
2023/10/19 14:22:58;;;;;;;;;;;;;;;13.30;73.83;99095.38;5431296;32;34246;-80
2023/10/19 14:26:00;;;;;;;;;;;;;;;13.14;74.54;99100.88;5447901;32;34351;-80
2023/10/19 14:29:02;;;;;;;;;;;;;;;13.12;74.93;99092.19;5443599;32;34347;-81
2023/10/19 14:32:05;;;;;;;;;;;;;;;12.89;75.52;99088.53;5446705;32;35655;-82
2023/10/19 14:35:10;;;;;;;;;;;;;;;13.27;73.91;99074.50;5448119;32;34221;-80
2023/10/19 14:38:14;;;;;;;;;;;;;;;13.05;75.99;99076.91;5447442;32;35188;-81
2023/10/19 14:41:17;;;;;;;;;;;;;;;13.11;76.06;99076.47;5450014;32;33912;-81
2023/10/19 14:44:19;;;;;;;;;;;;;;;13.55;74.50;99082.12;5448570;32;34919;-79
2023/10/19 14:47:21;;;;;;;;;;;;;;;13.10;75.87;99090.62;5450505;32;34359;-79
2023/10/19 14:50:24;;;;;;;;;;;;;;;13.51;74.68;99080.63;5447795;32;32763;-82
2023/10/19 14:53:27;;;;;;;;;;;;;;;13.83;73.30;99074.81;5447312;32;34331;-80
2023/10/19 14:56:29;;;;;;;;;;;;;;;14.03;72.96;99076.84;5448776;32;35407;-78
2023/10/19 14:59:33;;;;;;;;;;;;;;;14.02;73.21;99074.31;5447780;32;35477;-80
2023/10/19 15:02:35;;;;;;;;;;;;;;;13.23;76.15;99073.00;5451254;32;34192;-78
2023/10/19 15:05:38;;;;;;;;;;;;;;;13.35;76.86;99069.50;5446969;32;33724;-82
2023/10/19 15:08:40;;;;;;;;;;;;;;;13.10;77.58;99058.97;5444072;32;33331;-81
2023/10/19 15:11:43;;;;;;;;;;;;;;;13.10;77.79;99057.16;5446700;32;34503;-79
2023/10/19 15:14:45;;;;;;;;;;;;;;;13.07;79.92;99061.81;5460737;32;34443;-81
2023/10/19 15:17:47;;;;;;;;;;;;;;;13.11;79.46;99044.81;5462895;32;34191;-81
2023/10/19 15:20:49;;;;;;;;;;;;;;;13.24;78.40;99058.88;5446259;32;33783;-80
2023/10/19 15:23:53;;;;;;;;;;;;;;;12.98;81.11;99050.13;5451725;32;34203;-80
2023/10/19 15:26:55;;;;;;;;;;;;;;;13.06;79.89;99046.94;5449163;32;34202;-80
2023/10/19 15:29:58;;;;;;;;;;;;;;;13.70;77.81;99044.97;5451367;32;35756;-80
2023/10/19 15:33:00;;;;;;;;;;;;;;;13.82;77.37;99041.44;5450719;32;34262;-81
2023/10/19 15:36:02;;;;;;;;;;;;;;;13.26;78.79;99036.69;5447267;32;34947;-80
2023/10/19 15:39:04;;;;;;;;;;;;;;;13.22;79.22;99032.59;5450922;32;33901;-80
2023/10/19 15:42:08;;;;;;;;;;;;;;;13.17;80.20;99036.47;5447780;32;34221;-78
2023/10/19 15:45:11;;;;;;;;;;;;;;;13.09;80.83;99028.28;5450839;32;35013;-78
2023/10/19 15:48:13;;;;;;;;;;;;;;;13.38;79.28;99027.03;5448059;32;35514;-79
2023/10/19 15:51:15;;;;;;;;;;;;;;;13.55;77.85;99017.91;5450927;32;34219;-78
2023/10/19 15:54:17;;;;;;;;;;;;;;;13.23;79.36;99018.44;5447522;32;34726;-79
2023/10/19 15:57:20;;;;;;;;;;;;;;;13.59;78.61;99013.25;5448095;32;35355;-78
2023/10/19 16:00:22;;;;;;;;;;;;;;;13.23;80.40;99007.88;5447404;32;35920;-78
2023/10/19 16:03:25;;;;;;;;;;;;;;;13.80;77.43;99017.81;5445430;32;34313;-78
2023/10/19 16:06:28;;;;;;;;;;;;;;;13.98;75.35;99009.47;5448232;32;35094;-80
2023/10/19 16:09:31;;;;;;;;;;;;;;;13.69;78.05;99008.97;5448983;32;34183;-80
2023/10/19 16:12:33;;;;;;;;;;;;;;;12.96;80.28;99020.38;5451555;32;34148;-77